Jackson Township, New Jersey
Current Conditions -  °F | °C
As of 6:55 PM on Friday 31 Oct 2014 (Local Time) from KMJX Reporting Station
Overcast Overcast  
Wind Chill: 46°   Ceiling: 7000
Heat Index: 48°   Visibility: 10mi
Dew Point: 43°   Wind: 6mph
Humidity: 82%   Direction: 20°NNE
Pressure: 29.87"   Gusts: NA
Location:  40.1058°N, 74.3545°W
Report Text: KMJX 312255Z AUTO 02005KT 10SM FEW046 FEW055 OVC070 09/06 A2987 RMK AO1
Loading
Personal Weather Stations






























Interactive Weather Map
Tropical Storm Tracking
New forecast layout! Learn more

10-Day Weather Forecast

Advertisements
Track Severe Weather on mobile